Time;durP1;ratioP1;P1;durP2;ratioP2;P2;SDS_P1;SDS_P2;PMS_P1;PMS_P2;Temp;Humidity;BMP_temperature;BMP_pressure;BME280_temperature;BME280_humidity;BME280_pressure;Samples;Min_cycle;Max_cycle;Signal;HPM_P1;HPM_P2
2024/01/07 00:00:16;;;;;;;;;;;;;;;3.90;56.34;98430.61;67569;1282;1016261;-67
2024/01/07 00:03:38;;;;;;;;;;;;;;;3.94;56.49;98430.45;67569;1282;1016664;-70
2024/01/07 00:06:41;;;;;;;;;;;;;;;3.82;56.13;98436.45;67532;1282;1016498;-70
2024/01/07 00:09:44;;;;;;;;;;;;;;;3.81;56.17;98438.75;67594;1282;1015719;-69
2024/01/07 00:12:48;;;;;;;;;;;;;;;3.80;56.04;98437.92;67573;1282;1016302;-69
2024/01/07 00:15:51;;;;;;;;;;;;;;;3.69;55.71;98435.25;67543;1282;1016192;-69
2024/01/07 00:18:53;;;;;;;;;;;;;;;3.70;56.27;98441.78;67516;1282;1016392;-69
2024/01/07 00:21:56;;;;;;;;;;;;;;;3.59;56.30;98443.06;67590;1282;1016503;-69
2024/01/07 00:24:59;;;;;;;;;;;;;;;3.51;56.11;98443.04;67600;1282;1016449;-69
2024/01/07 00:28:01;;;;;;;;;;;;;;;3.45;56.10;98443.41;67544;1282;1016429;-69
2024/01/07 00:31:04;;;;;;;;;;;;;;;3.29;56.98;98441.96;67569;1282;1016463;-70
2024/01/07 00:34:07;;;;;;;;;;;;;;;3.25;57.02;98448.69;67574;1282;1016557;-70
2024/01/07 00:37:10;;;;;;;;;;;;;;;3.25;57.14;98450.23;67573;1282;1016217;-70
2024/01/07 00:40:12;;;;;;;;;;;;;;;3.19;57.44;98450.27;67627;1282;1016493;-69
2024/01/07 00:43:15;;;;;;;;;;;;;;;3.22;57.33;98450.49;67544;1282;1018891;-70
2024/01/07 00:46:18;;;;;;;;;;;;;;;3.21;56.99;98454.34;67539;1282;1016090;-70
2024/01/07 00:49:20;;;;;;;;;;;;;;;3.15;57.42;98453.20;67600;1282;1016324;-70
2024/01/07 00:52:23;;;;;;;;;;;;;;;3.23;57.33;98459.80;67573;1282;1016404;-70
2024/01/07 00:55:26;;;;;;;;;;;;;;;3.27;57.12;98458.95;67531;1282;1016231;-69
2024/01/07 00:58:29;;;;;;;;;;;;;;;3.29;56.88;98454.58;67574;1282;1018890;-70
2024/01/07 01:01:31;;;;;;;;;;;;;;;3.22;56.76;98458.30;67512;1282;1016722;-69
2024/01/07 01:04:34;;;;;;;;;;;;;;;3.27;56.99;98460.67;67541;1282;1016455;-70
2024/01/07 01:07:37;;;;;;;;;;;;;;;3.31;56.34;98461.75;67584;1282;1016319;-69
2024/01/07 01:10:39;;;;;;;;;;;;;;;3.18;56.62;98462.91;67550;1282;1016038;-70
2024/01/07 01:13:42;;;;;;;;;;;;;;;3.01;56.91;98465.77;67519;1282;1016386;-70
2024/01/07 01:16:45;;;;;;;;;;;;;;;2.92;56.97;98464.54;67562;1282;1016494;-70
2024/01/07 01:19:47;;;;;;;;;;;;;;;2.90;57.26;98467.90;67526;1282;1016507;-66
2024/01/07 01:22:50;;;;;;;;;;;;;;;2.81;57.26;98465.79;67509;1282;1016411;-69
2024/01/07 01:25:53;;;;;;;;;;;;;;;2.88;56.99;98471.27;67584;1282;1016098;-67
2024/01/07 01:28:55;;;;;;;;;;;;;;;2.93;56.78;98472.45;67573;1282;1016094;-64
2024/01/07 01:31:58;;;;;;;;;;;;;;;2.99;56.65;98469.30;67539;1282;1016675;-63
2024/01/07 01:35:01;;;;;;;;;;;;;;;2.92;56.55;98475.08;67589;1282;1016300;-67
2024/01/07 01:38:03;;;;;;;;;;;;;;;2.84;56.56;98477.77;67591;1282;1016459;-65
2024/01/07 01:41:06;;;;;;;;;;;;;;;2.82;56.33;98473.89;67544;1282;1016504;-68
2024/01/07 01:44:09;;;;;;;;;;;;;;;2.84;56.65;98472.94;67594;1282;1016537;-66
2024/01/07 01:47:12;;;;;;;;;;;;;;;2.82;56.47;98481.32;67533;1282;1016449;-68
2024/01/07 01:50:15;;;;;;;;;;;;;;;2.80;56.84;98473.60;67554;1282;1016233;-66
2024/01/07 01:53:17;;;;;;;;;;;;;;;2.72;56.58;98481.30;67568;1282;1016218;-66
2024/01/07 01:56:20;;;;;;;;;;;;;;;2.71;56.75;98480.63;67539;1282;1016362;-66
2024/01/07 01:59:23;;;;;;;;;;;;;;;2.77;56.58;98485.60;67572;1282;1016398;-66
2024/01/07 02:02:26;;;;;;;;;;;;;;;2.66;56.50;98482.88;67539;1282;1016490;-67
2024/01/07 02:05:28;;;;;;;;;;;;;;;2.73;56.09;98485.42;67522;1282;1016468;-62
2024/01/07 02:08:31;;;;;;;;;;;;;;;2.68;56.27;98490.42;67570;1282;1016485;-69
2024/01/07 02:11:34;;;;;;;;;;;;;;;2.66;56.24;98492.89;67557;1282;1016133;-69
2024/01/07 02:14:36;;;;;;;;;;;;;;;2.55;56.27;98493.27;67534;1282;1016431;-65
2024/01/07 02:17:39;;;;;;;;;;;;;;;2.49;56.53;98492.61;67589;1282;1016289;-65
2024/01/07 02:20:42;;;;;;;;;;;;;;;2.59;56.41;98498.48;67552;1282;1016425;-69
2024/01/07 02:23:44;;;;;;;;;;;;;;;2.63;56.16;98501.46;67546;1282;1016427;-65
2024/01/07 02:26:47;;;;;;;;;;;;;;;2.53;55.88;98501.13;67565;1282;1016435;-67
2024/01/07 02:29:50;;;;;;;;;;;;;;;2.57;56.11;98501.98;67574;1282;1016488;-66
2024/01/07 02:32:53;;;;;;;;;;;;;;;2.56;55.75;98503.77;67555;1282;1016500;-62
2024/01/07 02:35:56;;;;;;;;;;;;;;;2.45;56.23;98507.76;67574;1282;1016513;-64
2024/01/07 02:38:59;;;;;;;;;;;;;;;2.44;56.40;98505.88;67539;1282;1016517;-69
2024/01/07 02:42:01;;;;;;;;;;;;;;;2.49;56.13;98509.34;67584;1282;1016462;-66
2024/01/07 02:45:04;;;;;;;;;;;;;;;2.43;56.23;98510.75;67590;1282;1016471;-64
2024/01/07 02:48:07;;;;;;;;;;;;;;;2.39;56.10;98510.20;67546;1282;1016410;-66
2024/01/07 02:51:09;;;;;;;;;;;;;;;2.39;56.35;98506.91;67593;1282;1015979;-65
2024/01/07 02:54:12;;;;;;;;;;;;;;;2.41;56.30;98508.94;67570;1283;1016211;-64
2024/01/07 02:57:15;;;;;;;;;;;;;;;2.32;56.58;98510.25;67515;1282;1018025;-65
2024/01/07 03:00:18;;;;;;;;;;;;;;;2.33;56.66;98511.79;67591;1282;1016457;-62
2024/01/07 03:03:21;;;;;;;;;;;;;;;2.39;56.40;98510.02;67538;1282;1016137;-63
2024/01/07 03:06:24;;;;;;;;;;;;;;;2.38;56.01;98512.29;67559;1282;1016057;-63
2024/01/07 03:09:26;;;;;;;;;;;;;;;2.34;56.14;98510.86;67529;1282;1016230;-65
2024/01/07 03:12:29;;;;;;;;;;;;;;;2.40;56.21;98509.64;67535;1282;1015828;-67
2024/01/07 03:15:32;;;;;;;;;;;;;;;2.42;56.08;98510.42;67568;1282;1016090;-69
2024/01/07 03:18:34;;;;;;;;;;;;;;;2.41;56.05;98511.67;67588;1282;1016407;-68
2024/01/07 03:21:37;;;;;;;;;;;;;;;2.38;56.11;98511.06;67546;1282;1016430;-70
2024/01/07 03:24:40;;;;;;;;;;;;;;;2.42;56.20;98517.86;67577;1282;1018740;-69
2024/01/07 03:27:42;;;;;;;;;;;;;;;2.58;55.85;98516.31;67590;1282;1016310;-69
2024/01/07 03:30:45;;;;;;;;;;;;;;;2.52;55.87;98513.23;67528;1282;1016471;-68
2024/01/07 03:33:47;;;;;;;;;;;;;;;2.53;55.75;98516.84;67563;1282;1016491;-69
2024/01/07 03:36:50;;;;;;;;;;;;;;;2.60;55.54;98513.48;67570;1282;1015883;-69
2024/01/07 03:39:53;;;;;;;;;;;;;;;2.62;55.57;98515.14;67550;1282;1016347;-69
2024/01/07 03:42:55;;;;;;;;;;;;;;;2.57;55.44;98514.42;67564;1282;1016531;-69
2024/01/07 03:45:58;;;;;;;;;;;;;;;2.60;55.68;98516.09;67580;1282;1016403;-69
2024/01/07 03:49:01;;;;;;;;;;;;;;;2.64;55.74;98516.96;67573;1282;1016110;-68
2024/01/07 03:52:03;;;;;;;;;;;;;;;2.66;55.58;98521.23;67524;1282;1016226;-69
2024/01/07 03:55:06;;;;;;;;;;;;;;;2.68;55.46;98521.85;67574;1282;1016220;-67
2024/01/07 03:58:09;;;;;;;;;;;;;;;2.42;55.79;98524.94;67595;1282;1016165;-67
2024/01/07 04:01:11;;;;;;;;;;;;;;;2.40;55.92;98522.61;67569;1282;1019721;-68
2024/01/07 04:04:14;;;;;;;;;;;;;;;2.59;55.49;98527.31;67540;1283;1016397;-68
2024/01/07 04:07:17;;;;;;;;;;;;;;;2.61;55.18;98528.31;67581;1282;1016644;-69
2024/01/07 04:10:19;;;;;;;;;;;;;;;2.54;55.05;98528.34;67565;1282;1018704;-68
2024/01/07 04:13:22;;;;;;;;;;;;;;;2.50;55.07;98535.56;67560;1282;1016602;-70
2024/01/07 04:16:25;;;;;;;;;;;;;;;2.50;55.16;98531.77;67571;1282;1016482;-68
2024/01/07 04:19:27;;;;;;;;;;;;;;;2.44;55.43;98534.36;67577;1282;1016097;-69
2024/01/07 04:22:30;;;;;;;;;;;;;;;2.33;55.40;98534.56;67530;1282;1016458;-69
2024/01/07 04:25:33;;;;;;;;;;;;;;;2.27;55.73;98537.84;67587;1282;1016514;-69
2024/01/07 04:28:35;;;;;;;;;;;;;;;2.23;55.73;98541.41;67559;1282;1016388;-68
2024/01/07 04:31:38;;;;;;;;;;;;;;;2.06;55.93;98541.60;67550;1282;1016222;-68
2024/01/07 04:34:41;;;;;;;;;;;;;;;2.12;55.63;98546.08;67590;1282;1016191;-69
2024/01/07 04:37:43;;;;;;;;;;;;;;;2.09;55.75;98545.67;67565;1282;1016539;-69
2024/01/07 04:40:46;;;;;;;;;;;;;;;2.18;56.07;98551.08;67545;1282;1016467;-69
2024/01/07 04:43:49;;;;;;;;;;;;;;;2.16;55.85;98552.00;67562;1282;1016170;-70
2024/01/07 04:46:52;;;;;;;;;;;;;;;2.14;55.93;98555.16;67570;1282;1016488;-69
2024/01/07 04:49:54;;;;;;;;;;;;;;;2.02;56.22;98560.19;67527;1282;1018861;-69
2024/01/07 04:52:57;;;;;;;;;;;;;;;1.94;56.40;98561.98;67565;1282;1016922;-65
2024/01/07 04:56:00;;;;;;;;;;;;;;;2.05;56.25;98565.44;67557;1282;1016410;-63
2024/01/07 04:59:02;;;;;;;;;;;;;;;2.10;56.41;98568.91;67534;1282;1016016;-64
2024/01/07 05:02:05;;;;;;;;;;;;;;;2.19;55.89;98566.73;67578;1282;1016446;-63
2024/01/07 05:05:08;;;;;;;;;;;;;;;2.18;55.56;98568.34;67548;1282;1016437;-63
2024/01/07 05:08:11;;;;;;;;;;;;;;;2.24;54.95;98574.33;67548;1282;1016429;-65
2024/01/07 05:11:13;;;;;;;;;;;;;;;2.20;55.15;98570.65;67581;1282;1016545;-61
2024/01/07 05:14:16;;;;;;;;;;;;;;;2.17;55.07;98573.35;67520;1282;1019434;-64
2024/01/07 05:17:19;;;;;;;;;;;;;;;2.15;55.10;98577.06;67540;1282;1016554;-63
2024/01/07 05:20:22;;;;;;;;;;;;;;;2.06;55.19;98575.77;67561;1282;1016519;-65
2024/01/07 05:23:24;;;;;;;;;;;;;;;2.17;54.85;98581.29;67494;1282;1016218;-65
2024/01/07 05:26:27;;;;;;;;;;;;;;;2.13;54.99;98582.79;67560;1282;1016213;-65
2024/01/07 05:29:30;;;;;;;;;;;;;;;2.06;55.11;98581.09;67520;1282;1016459;-63
2024/01/07 05:32:32;;;;;;;;;;;;;;;2.12;55.09;98584.89;67549;1282;1016486;-61
2024/01/07 05:35:35;;;;;;;;;;;;;;;2.11;55.14;98582.16;67503;1282;1016434;-68
2024/01/07 05:38:38;;;;;;;;;;;;;;;2.07;54.41;98582.29;67584;1282;1016420;-67
2024/01/07 05:41:40;;;;;;;;;;;;;;;2.00;54.83;98590.23;67517;1282;1016340;-65
2024/01/07 05:44:43;;;;;;;;;;;;;;;1.90;55.02;98593.16;67525;1282;1016810;-68
2024/01/07 05:47:46;;;;;;;;;;;;;;;1.72;55.26;98598.29;67572;1282;1016510;-66
2024/01/07 05:50:49;;;;;;;;;;;;;;;1.75;55.44;98603.20;67526;1282;1017336;-65
2024/01/07 05:53:51;;;;;;;;;;;;;;;1.80;55.44;98603.75;67534;1282;1016404;-66
2024/01/07 05:56:54;;;;;;;;;;;;;;;1.95;55.08;98609.02;67582;1282;1016481;-66
2024/01/07 05:59:57;;;;;;;;;;;;;;;1.83;55.12;98607.31;67542;1282;1016483;-66
2024/01/07 06:03:00;;;;;;;;;;;;;;;1.83;55.29;98613.69;67526;1282;1016349;-64
2024/01/07 06:06:03;;;;;;;;;;;;;;;1.96;55.32;98612.27;67527;1282;1016199;-63
2024/01/07 06:09:06;;;;;;;;;;;;;;;2.02;55.18;98615.19;67578;1282;1016467;-64
2024/01/07 06:12:09;;;;;;;;;;;;;;;2.04;55.00;98618.76;67501;1282;1017956;-62
2024/01/07 06:15:12;;;;;;;;;;;;;;;2.10;55.13;98621.52;67516;1282;1016818;-62
2024/01/07 06:18:14;;;;;;;;;;;;;;;2.23;54.86;98623.20;67560;1282;1016216;-67
2024/01/07 06:21:17;;;;;;;;;;;;;;;2.12;54.72;98625.27;67519;1282;1016461;-63
2024/01/07 06:24:20;;;;;;;;;;;;;;;2.10;54.84;98624.45;67498;1282;1016007;-69
2024/01/07 06:27:22;;;;;;;;;;;;;;;1.97;55.07;98628.27;67571;1282;1015979;-68
2024/01/07 06:30:25;;;;;;;;;;;;;;;1.92;55.22;98625.35;67515;1282;1016264;-69
2024/01/07 06:33:28;;;;;;;;;;;;;;;1.94;55.31;98628.20;67545;1282;1016449;-69
2024/01/07 06:36:30;;;;;;;;;;;;;;;1.94;55.28;98634.77;67559;1282;1016328;-68
2024/01/07 06:39:34;;;;;;;;;;;;;;;1.84;54.94;98634.54;67559;1282;1016380;-68
2024/01/07 06:42:37;;;;;;;;;;;;;;;1.82;55.17;98638.71;67553;1282;1017145;-69
2024/01/07 06:45:39;;;;;;;;;;;;;;;1.73;55.47;98638.80;67540;1282;1016389;-68
2024/01/07 06:48:42;;;;;;;;;;;;;;;1.69;55.65;98638.88;67536;1282;1016384;-69
2024/01/07 06:51:45;;;;;;;;;;;;;;;1.70;55.73;98641.29;67585;1282;1016448;-69
2024/01/07 06:54:47;;;;;;;;;;;;;;;1.80;55.52;98640.34;67568;1282;1016424;-69
2024/01/07 06:57:50;;;;;;;;;;;;;;;1.89;55.31;98644.21;67550;1282;1016154;-69
2024/01/07 07:00:53;;;;;;;;;;;;;;;1.95;55.24;98646.63;67550;1282;1016328;-68
2024/01/07 07:03:55;;;;;;;;;;;;;;;1.92;55.14;98652.74;67558;1282;1016410;-69
2024/01/07 07:07:00;;;;;;;;;;;;;;;1.93;55.14;98654.27;67500;1282;1016463;-69
2024/01/07 07:10:03;;;;;;;;;;;;;;;1.96;54.93;98658.16;67503;1282;1016488;-69
2024/01/07 07:13:06;;;;;;;;;;;;;;;2.00;54.93;98658.39;67515;1282;1016309;-69
2024/01/07 07:16:09;;;;;;;;;;;;;;;1.99;54.55;98663.74;67517;1282;1016387;-69
2024/01/07 07:19:14;;;;;;;;;;;;;;;2.04;54.58;98663.09;67558;1282;1016430;-67
2024/01/07 07:22:17;;;;;;;;;;;;;;;1.97;54.55;98665.03;67559;1282;1016477;-69
2024/01/07 07:25:20;;;;;;;;;;;;;;;1.91;54.76;98667.95;67532;1282;1016346;-68
2024/01/07 07:28:23;;;;;;;;;;;;;;;1.94;54.68;98669.92;67520;1282;1016485;-69
2024/01/07 07:31:25;;;;;;;;;;;;;;;2.08;54.18;98667.30;67571;1282;1016453;-69
2024/01/07 07:34:28;;;;;;;;;;;;;;;2.12;53.91;98670.80;67517;1282;1016411;-68
2024/01/07 07:37:31;;;;;;;;;;;;;;;2.07;53.71;98671.30;67525;1282;1016472;-69
2024/01/07 07:40:34;;;;;;;;;;;;;;;2.10;53.74;98676.20;67552;1282;1016355;-68
2024/01/07 07:43:37;;;;;;;;;;;;;;;2.13;53.37;98672.67;67497;1282;1016468;-68
2024/01/07 07:46:39;;;;;;;;;;;;;;;2.21;53.69;98676.77;67570;1282;1016567;-69
2024/01/07 07:49:42;;;;;;;;;;;;;;;2.35;53.00;98673.73;67557;1282;1016300;-68
2024/01/07 07:52:45;;;;;;;;;;;;;;;2.45;52.99;98676.89;67520;1282;1016438;-69
2024/01/07 07:55:47;;;;;;;;;;;;;;;2.47;52.61;98678.76;67580;1282;1016162;-68
2024/01/07 07:58:50;;;;;;;;;;;;;;;2.50;52.50;98678.14;67539;1282;1016456;-68
2024/01/07 08:01:53;;;;;;;;;;;;;;;2.63;52.07;98677.05;67522;1282;1016365;-69
2024/01/07 08:04:55;;;;;;;;;;;;;;;2.65;51.95;98680.62;67543;1282;1019061;-68
2024/01/07 08:07:58;;;;;;;;;;;;;;;2.73;52.02;98679.66;67574;1282;1016673;-66
2024/01/07 08:11:01;;;;;;;;;;;;;;;2.84;52.18;98686.59;67520;1282;1016299;-69
2024/01/07 08:14:05;;;;;;;;;;;;;;;2.82;51.59;98690.77;67551;1282;1016469;-69
2024/01/07 08:17:08;;;;;;;;;;;;;;;2.81;51.86;98686.49;67546;1282;1016273;-67
2024/01/07 08:20:11;;;;;;;;;;;;;;;2.73;51.81;98689.00;67538;1282;1016443;-69
2024/01/07 08:23:14;;;;;;;;;;;;;;;2.61;51.79;98687.11;67549;1282;1017302;-66
2024/01/07 08:26:16;;;;;;;;;;;;;;;2.58;51.57;98689.27;67513;1282;1016465;-64
2024/01/07 08:29:19;;;;;;;;;;;;;;;2.69;51.60;98691.04;67522;1282;1016410;-68
2024/01/07 08:32:22;;;;;;;;;;;;;;;2.64;51.51;98693.43;67550;1282;1016207;-63
2024/01/07 08:35:25;;;;;;;;;;;;;;;2.82;51.62;98695.10;67509;1282;1016418;-61
2024/01/07 08:38:28;;;;;;;;;;;;;;;2.87;50.85;98695.46;67554;1282;1018464;-65
2024/01/07 08:41:31;;;;;;;;;;;;;;;2.78;50.69;98701.96;67520;1282;1016390;-66
2024/01/07 08:44:34;;;;;;;;;;;;;;;2.70;51.14;98709.98;67497;1282;1016427;-68
2024/01/07 08:47:37;;;;;;;;;;;;;;;2.68;50.76;98712.29;67558;1282;1016968;-63
2024/01/07 08:50:39;;;;;;;;;;;;;;;2.74;50.85;98706.59;67508;1282;1016430;-65
2024/01/07 08:53:42;;;;;;;;;;;;;;;2.79;50.63;98708.67;67557;1282;1017283;-68
2024/01/07 08:56:45;;;;;;;;;;;;;;;2.79;50.63;98707.10;67550;1282;1016357;-60
2024/01/07 08:59:47;;;;;;;;;;;;;;;2.75;50.16;98713.78;67548;1282;1016553;-68
2024/01/07 09:02:50;;;;;;;;;;;;;;;2.86;50.20;98706.02;67564;1282;1016204;-62
2024/01/07 09:05:53;;;;;;;;;;;;;;;3.09;50.01;98705.98;67592;1282;1018720;-67
2024/01/07 09:08:55;;;;;;;;;;;;;;;3.12;49.70;98712.45;67576;1282;1016334;-61
2024/01/07 09:12:00;;;;;;;;;;;;;;;3.15;49.56;98707.00;67533;1282;1016251;-63
2024/01/07 09:15:02;;;;;;;;;;;;;;;3.15;49.53;98707.19;67547;1282;1017139;-61
2024/01/07 09:18:05;;;;;;;;;;;;;;;3.31;49.75;98710.13;67603;1282;1016147;-64
2024/01/07 09:21:08;;;;;;;;;;;;;;;3.42;49.35;98711.98;67527;1282;1016417;-63
2024/01/07 09:24:11;;;;;;;;;;;;;;;3.38;49.15;98715.58;65017;1282;6370284;-64
2024/01/07 09:27:14;;;;;;;;;;;;;;;3.40;49.30;98715.01;67572;1282;1016444;-61
2024/01/07 09:30:17;;;;;;;;;;;;;;;3.47;49.11;98713.23;67539;1282;1017019;-67
2024/01/07 09:33:23;;;;;;;;;;;;;;;3.38;48.85;98719.05;67529;1282;1016333;-68
2024/01/07 09:36:25;;;;;;;;;;;;;;;3.34;49.02;98719.02;67567;1282;1016342;-68
2024/01/07 09:39:37;;;;;;;;;;;;;;;3.47;49.34;98716.12;67562;1282;1016388;-69
2024/01/07 09:42:39;;;;;;;;;;;;;;;3.65;49.07;98714.34;67576;1282;1016467;-68
2024/01/07 09:45:42;;;;;;;;;;;;;;;3.78;49.19;98715.07;67559;1282;1016205;-67
2024/01/07 09:48:45;;;;;;;;;;;;;;;3.79;48.93;98716.58;67570;1282;1016110;-69
2024/01/07 09:51:47;;;;;;;;;;;;;;;3.74;48.71;98714.54;67552;1282;1016409;-68
2024/01/07 09:54:50;;;;;;;;;;;;;;;3.65;48.55;98711.40;67512;1282;1016437;-68
2024/01/07 09:57:54;;;;;;;;;;;;;;;3.59;48.70;98711.78;67575;1282;1016316;-68
2024/01/07 10:00:56;;;;;;;;;;;;;;;3.60;48.61;98715.88;67526;1282;1016022;-68
2024/01/07 10:03:59;;;;;;;;;;;;;;;3.61;48.41;98710.68;67562;1282;1016397;-68
2024/01/07 10:07:02;;;;;;;;;;;;;;;3.43;48.37;98706.09;67547;1282;1016457;-68
2024/01/07 10:10:04;;;;;;;;;;;;;;;3.24;48.70;98704.31;67532;1282;1016533;-69
2024/01/07 10:13:08;;;;;;;;;;;;;;;3.24;49.18;98698.23;67560;1282;1016574;-68
2024/01/07 10:16:11;;;;;;;;;;;;;;;3.36;48.91;98700.44;67517;1282;1016022;-65
2024/01/07 10:19:13;;;;;;;;;;;;;;;3.46;48.68;98703.20;67566;1282;1016229;-66
2024/01/07 10:22:17;;;;;;;;;;;;;;;3.51;48.52;98699.77;67590;1282;1017043;-68
2024/01/07 10:25:20;;;;;;;;;;;;;;;3.46;48.53;98702.18;67581;1282;1016475;-69
2024/01/07 10:28:22;;;;;;;;;;;;;;;3.53;48.19;98695.52;67562;1282;1016031;-69
2024/01/07 10:31:25;;;;;;;;;;;;;;;3.59;48.53;98689.45;67533;1282;1016536;-66
2024/01/07 10:34:28;;;;;;;;;;;;;;;3.58;48.14;98698.14;67548;1282;1016415;-66
2024/01/07 10:37:30;;;;;;;;;;;;;;;3.48;48.07;98701.79;67579;1282;1019022;-69
2024/01/07 10:40:34;;;;;;;;;;;;;;;3.52;47.55;98696.81;67535;1282;1016332;-69
2024/01/07 10:43:37;;;;;;;;;;;;;;;3.48;47.72;98698.65;67533;1282;1016533;-68
2024/01/07 10:46:39;;;;;;;;;;;;;;;3.54;47.87;98696.71;67536;1282;1016419;-67
2024/01/07 10:49:42;;;;;;;;;;;;;;;3.54;47.69;98698.10;67573;1282;1016511;-69
2024/01/07 10:52:45;;;;;;;;;;;;;;;3.60;47.85;98696.16;67539;1282;1016424;-68
2024/01/07 10:55:47;;;;;;;;;;;;;;;3.56;47.83;98693.55;67568;1282;1018161;-68
2024/01/07 10:58:50;;;;;;;;;;;;;;;3.62;47.69;98698.19;67575;1282;1016360;-68
2024/01/07 11:01:53;;;;;;;;;;;;;;;3.58;47.22;98697.81;67529;1282;1016482;-69
2024/01/07 11:04:57;;;;;;;;;;;;;;;3.46;47.65;98698.20;67508;1282;1016379;-69
2024/01/07 11:08:00;;;;;;;;;;;;;;;3.61;48.05;98701.52;67511;1282;1016479;-68
2024/01/07 11:11:03;;;;;;;;;;;;;;;3.59;47.19;98702.08;67512;1282;1016323;-69
2024/01/07 11:14:06;;;;;;;;;;;;;;;3.59;47.39;98705.54;67583;1282;1016374;-68
2024/01/07 11:17:09;;;;;;;;;;;;;;;3.70;47.51;98701.52;67546;1282;1016443;-69
2024/01/07 11:20:12;;;;;;;;;;;;;;;3.66;47.32;98699.08;67583;1282;1015890;-68
2024/01/07 11:23:14;;;;;;;;;;;;;;;3.60;47.26;98702.90;67563;1282;1018599;-69
2024/01/07 11:26:17;;;;;;;;;;;;;;;3.52;47.36;98700.07;67538;1282;1019654;-69
2024/01/07 11:29:20;;;;;;;;;;;;;;;3.59;47.73;98704.50;67601;1282;1016468;-69
2024/01/07 11:32:23;;;;;;;;;;;;;;;3.76;47.81;98704.94;67526;1282;1016300;-69
2024/01/07 11:35:26;;;;;;;;;;;;;;;3.92;47.28;98707.15;67567;1282;1016295;-69
2024/01/07 11:38:28;;;;;;;;;;;;;;;4.03;46.74;98705.73;67566;1282;1016401;-68
2024/01/07 11:41:31;;;;;;;;;;;;;;;3.99;46.53;98710.89;67504;1282;1016358;-65
2024/01/07 11:44:34;;;;;;;;;;;;;;;3.95;46.62;98710.52;67593;1282;1016422;-69
2024/01/07 11:47:37;;;;;;;;;;;;;;;3.83;45.98;98713.38;67555;1282;1016475;-69
2024/01/07 11:50:39;;;;;;;;;;;;;;;3.65;46.74;98717.96;67531;1282;1016808;-69
2024/01/07 11:53:42;;;;;;;;;;;;;;;3.78;46.36;98717.51;67526;1282;1016293;-69
2024/01/07 11:56:45;;;;;;;;;;;;;;;3.67;46.54;98715.13;67541;1282;1016456;-69
2024/01/07 11:59:48;;;;;;;;;;;;;;;3.58;46.57;98716.82;67523;1282;1016386;-69
2024/01/07 12:02:50;;;;;;;;;;;;;;;3.48;46.45;98716.98;67556;1282;1016468;-69
2024/01/07 12:05:53;;;;;;;;;;;;;;;3.25;46.41;98718.09;67518;1282;1016467;-64
2024/01/07 12:08:56;;;;;;;;;;;;;;;3.22;46.83;98718.73;67514;1282;1016521;-65
2024/01/07 12:11:58;;;;;;;;;;;;;;;3.31;46.89;98726.02;67563;1282;1016508;-61
2024/01/07 12:15:04;;;;;;;;;;;;;;;3.20;46.85;98725.33;67603;1282;1016680;-69
2024/01/07 12:18:07;;;;;;;;;;;;;;;3.23;46.83;98725.39;67594;1282;1016329;-67
2024/01/07 12:21:09;;;;;;;;;;;;;;;3.17;46.79;98729.06;67537;1282;1015989;-69
2024/01/07 12:24:13;;;;;;;;;;;;;;;2.88;47.29;98737.91;67557;1282;1018188;-69
2024/01/07 12:27:16;;;;;;;;;;;;;;;2.77;47.56;98733.23;67538;1282;1015974;-67
2024/01/07 12:30:19;;;;;;;;;;;;;;;2.79;47.76;98735.42;67594;1282;1017880;-69
2024/01/07 12:33:21;;;;;;;;;;;;;;;2.90;47.69;98738.71;67570;1282;1016490;-67
2024/01/07 12:36:24;;;;;;;;;;;;;;;3.00;47.68;98737.90;67523;1282;1016011;-67
2024/01/07 12:39:27;;;;;;;;;;;;;;;3.07;47.39;98739.55;67590;1282;1016076;-64
2024/01/07 12:42:30;;;;;;;;;;;;;;;2.95;47.09;98741.48;67524;1282;1016556;-67
2024/01/07 12:45:33;;;;;;;;;;;;;;;2.98;47.41;98740.39;67528;1282;1016471;-65
2024/01/07 12:48:35;;;;;;;;;;;;;;;3.17;47.16;98736.32;67559;1282;1016273;-67
2024/01/07 12:51:38;;;;;;;;;;;;;;;3.09;46.69;98740.90;67548;1282;1016249;-69
2024/01/07 12:54:41;;;;;;;;;;;;;;;2.89;46.74;98748.60;67578;1282;1016030;-67
2024/01/07 12:57:43;;;;;;;;;;;;;;;2.75;46.84;98754.02;67578;1282;1017200;-66
2024/01/07 13:00:46;;;;;;;;;;;;;;;2.70;47.02;98754.36;67552;1282;1016422;-66
2024/01/07 13:03:49;;;;;;;;;;;;;;;2.67;46.83;98759.95;67589;1282;1016403;-68
2024/01/07 13:06:52;;;;;;;;;;;;;;;2.46;46.85;98766.64;67558;1282;1016044;-66
2024/01/07 13:09:54;;;;;;;;;;;;;;;2.36;47.23;98765.17;67592;1282;1016297;-69
2024/01/07 13:12:57;;;;;;;;;;;;;;;2.35;47.30;98770.20;67592;1282;1016313;-68
2024/01/07 13:16:02;;;;;;;;;;;;;;;2.35;47.32;98770.39;67578;1282;1016298;-69
2024/01/07 13:19:05;;;;;;;;;;;;;;;2.26;47.42;98770.80;67548;1282;1016269;-69
2024/01/07 13:22:07;;;;;;;;;;;;;;;2.20;47.49;98776.67;67554;1282;1016408;-69
2024/01/07 13:25:10;;;;;;;;;;;;;;;2.14;47.82;98779.75;67530;1282;1016488;-66
2024/01/07 13:28:13;;;;;;;;;;;;;;;2.14;47.74;98784.45;67557;1282;1016498;-68
2024/01/07 13:31:16;;;;;;;;;;;;;;;2.15;47.49;98788.55;67588;1282;1016201;-68
2024/01/07 13:34:19;;;;;;;;;;;;;;;2.01;47.69;98789.60;67542;1282;1016300;-68
2024/01/07 13:37:21;;;;;;;;;;;;;;;1.90;47.87;98793.37;67576;1282;1016463;-67
2024/01/07 13:40:24;;;;;;;;;;;;;;;1.78;47.77;98800.05;67534;1282;1017318;-69
2024/01/07 13:43:29;;;;;;;;;;;;;;;1.66;47.98;98799.30;67538;1282;1016126;-66
2024/01/07 13:46:32;;;;;;;;;;;;;;;1.64;48.30;98806.59;67545;1282;1016497;-69
2024/01/07 13:49:35;;;;;;;;;;;;;;;1.62;48.14;98811.46;67536;1282;1016474;-68
2024/01/07 13:52:38;;;;;;;;;;;;;;;1.55;48.21;98810.09;67590;1282;1016551;-68
2024/01/07 13:55:41;;;;;;;;;;;;;;;1.41;48.63;98818.35;67515;1282;1016004;-69
2024/01/07 13:58:46;;;;;;;;;;;;;;;1.33;48.51;98817.52;67550;1282;1016466;-68
2024/01/07 14:01:49;;;;;;;;;;;;;;;1.23;48.67;98816.71;67523;1282;1018913;-69
2024/01/07 14:04:52;;;;;;;;;;;;;;;1.06;49.05;98820.19;67565;1282;1016297;-69
2024/01/07 14:07:55;;;;;;;;;;;;;;;1.08;49.13;98826.35;67545;1282;1016221;-69
2024/01/07 14:10:57;;;;;;;;;;;;;;;1.09;49.26;98827.02;67566;1282;1016007;-68
2024/01/07 14:14:01;;;;;;;;;;;;;;;1.11;49.21;98833.34;67580;1282;1016050;-68
2024/01/07 14:17:04;;;;;;;;;;;;;;;1.15;49.33;98831.35;67590;1282;1016480;-68
2024/01/07 14:20:07;;;;;;;;;;;;;;;1.11;49.59;98834.38;67542;1282;1016335;-68
2024/01/07 14:23:10;;;;;;;;;;;;;;;1.01;49.56;98837.34;67582;1282;1016470;-68
2024/01/07 14:26:13;;;;;;;;;;;;;;;0.96;49.88;98842.98;67507;1282;1016351;-68
2024/01/07 14:29:15;;;;;;;;;;;;;;;0.95;49.92;98843.68;67586;1282;1016191;-67
2024/01/07 14:32:18;;;;;;;;;;;;;;;0.94;49.90;98851.27;67585;1282;1016284;-70
2024/01/07 14:35:24;;;;;;;;;;;;;;;0.82;50.28;98854.46;67518;1282;1016407;-69
2024/01/07 14:38:27;;;;;;;;;;;;;;;0.85;50.40;98855.25;67541;1282;1016231;-70
2024/01/07 14:41:30;;;;;;;;;;;;;;;0.83;50.82;98857.54;67557;1282;1016303;-69
2024/01/07 14:44:32;;;;;;;;;;;;;;;0.83;50.68;98861.33;67540;1282;1016328;-69
2024/01/07 14:47:35;;;;;;;;;;;;;;;0.81;50.96;98863.08;67542;1282;1016891;-69
2024/01/07 14:50:38;;;;;;;;;;;;;;;0.75;51.26;98865.11;67574;1282;1016414;-67
2024/01/07 14:53:41;;;;;;;;;;;;;;;0.80;51.55;98864.48;67530;1282;1016480;-69
2024/01/07 14:56:44;;;;;;;;;;;;;;;0.83;51.36;98866.82;67574;1282;1016450;-70
2024/01/07 14:59:47;;;;;;;;;;;;;;;0.86;51.19;98876.40;67546;1282;1016039;-68
2024/01/07 15:02:50;;;;;;;;;;;;;;;0.92;51.14;98878.35;67570;1282;1016283;-70
2024/01/07 15:05:54;;;;;;;;;;;;;;;0.78;51.54;98880.35;67541;1282;1016303;-69
2024/01/07 15:08:56;;;;;;;;;;;;;;;0.86;51.02;98880.20;67559;1282;1016436;-70
2024/01/07 15:11:59;;;;;;;;;;;;;;;1.00;50.89;98882.31;67523;1282;1016229;-69
2024/01/07 15:15:03;;;;;;;;;;;;;;;0.97;50.89;98885.13;67593;1282;1016250;-69
2024/01/07 15:18:06;;;;;;;;;;;;;;;0.87;51.03;98890.69;67578;1282;1016960;-70
2024/01/07 15:21:09;;;;;;;;;;;;;;;0.89;51.09;98892.70;67569;1282;1016421;-68
2024/01/07 15:24:11;;;;;;;;;;;;;;;0.93;50.91;98891.59;67537;1282;1017879;-69
2024/01/07 15:27:14;;;;;;;;;;;;;;;1.01;50.70;98892.96;67599;1282;1018419;-70
2024/01/07 15:30:17;;;;;;;;;;;;;;;0.94;50.67;98894.48;67517;1282;1016419;-69
2024/01/07 15:33:19;;;;;;;;;;;;;;;0.84;50.63;98896.58;67522;1282;1017198;-70
2024/01/07 15:36:22;;;;;;;;;;;;;;;0.86;50.47;98899.14;67586;1282;1016306;-69